sensor_id;sensor_type;location;lat;lon;timestamp;pressure;altitude;pressure_sealevel;temperature;humidity
43364;BME280;40636;52.424;-1.948;2022-08-19T00:02:01;99489.31;;;17.14;100.00
43364;BME280;40636;52.424;-1.948;2022-08-19T00:04:32;99489.00;;;17.16;100.00
43364;BME280;40636;52.424;-1.948;2022-08-19T00:07:04;99495.47;;;17.11;100.00
43364;BME280;40636;52.424;-1.948;2022-08-19T00:09:32;99509.88;;;17.13;100.00
43364;BME280;40636;52.424;-1.948;2022-08-19T00:11:59;99494.38;;;17.12;100.00
43364;BME280;40636;52.424;-1.948;2022-08-19T00:14:28;99497.00;;;17.04;100.00
43364;BME280;40636;52.424;-1.948;2022-08-19T00:16:59;99506.97;;;17.05;100.00
43364;BME280;40636;52.424;-1.948;2022-08-19T00:19:26;99503.38;;;17.04;100.00
43364;BME280;40636;52.424;-1.948;2022-08-19T00:21:53;99508.91;;;17.04;100.00
43364;BME280;40636;52.424;-1.948;2022-08-19T00:24:22;99508.91;;;17.04;100.00
43364;BME280;40636;52.424;-1.948;2022-08-19T00:26:50;99511.69;;;17.04;100.00
43364;BME280;40636;52.424;-1.948;2022-08-19T00:29:19;99507.47;;;17.07;100.00
43364;BME280;40636;52.424;-1.948;2022-08-19T00:31:46;99511.59;;;17.09;100.00
43364;BME280;40636;52.424;-1.948;2022-08-19T00:34:16;99515.41;;;17.13;100.00
43364;BME280;40636;52.424;-1.948;2022-08-19T00:36:43;99516.44;;;17.17;100.00
43364;BME280;40636;52.424;-1.948;2022-08-19T00:39:11;99511.09;;;17.21;100.00
43364;BME280;40636;52.424;-1.948;2022-08-19T00:41:39;99506.91;;;17.23;100.00
43364;BME280;40636;52.424;-1.948;2022-08-19T00:44:13;99505.47;;;17.26;100.00
43364;BME280;40636;52.424;-1.948;2022-08-19T00:46:43;99503.72;;;17.30;100.00
43364;BME280;40636;52.424;-1.948;2022-08-19T00:49:27;99501.78;;;17.31;100.00
43364;BME280;40636;52.424;-1.948;2022-08-19T00:52:03;99504.56;;;17.31;100.00
43364;BME280;40636;52.424;-1.948;2022-08-19T00:54:31;99502.88;;;17.30;100.00
43364;BME280;40636;52.424;-1.948;2022-08-19T00:57:01;99502.38;;;17.28;100.00
43364;BME280;40636;52.424;-1.948;2022-08-19T00:59:28;99504.94;;;17.24;100.00
43364;BME280;40636;52.424;-1.948;2022-08-19T01:02:16;99500.31;;;17.19;100.00
43364;BME280;40636;52.424;-1.948;2022-08-19T01:04:43;99507.50;;;17.20;100.00
43364;BME280;40636;52.424;-1.948;2022-08-19T01:07:10;99504.53;;;17.17;100.00
43364;BME280;40636;52.424;-1.948;2022-08-19T01:09:45;99507.00;;;17.18;100.00
43364;BME280;40636;52.424;-1.948;2022-08-19T01:12:12;99515.31;;;17.18;100.00
43364;BME280;40636;52.424;-1.948;2022-08-19T01:14:40;99510.09;;;17.17;100.00
43364;BME280;40636;52.424;-1.948;2022-08-19T01:17:09;99514.50;;;17.18;100.00
43364;BME280;40636;52.424;-1.948;2022-08-19T01:19:41;99505.88;;;17.19;100.00
43364;BME280;40636;52.424;-1.948;2022-08-19T01:22:33;99512.00;;;17.16;100.00
43364;BME280;40636;52.424;-1.948;2022-08-19T01:25:01;99504.31;;;17.13;100.00
43364;BME280;40636;52.424;-1.948;2022-08-19T01:27:45;99509.66;;;17.10;100.00
43364;BME280;40636;52.424;-1.948;2022-08-19T01:30:15;99505.47;;;17.12;100.00
43364;BME280;40636;52.424;-1.948;2022-08-19T01:32:43;99514.28;;;17.14;100.00
43364;BME280;40636;52.424;-1.948;2022-08-19T01:35:10;99512.09;;;17.11;100.00
43364;BME280;40636;52.424;-1.948;2022-08-19T01:37:50;99508.50;;;17.11;100.00
43364;BME280;40636;52.424;-1.948;2022-08-19T01:40:20;99511.88;;;17.08;100.00
43364;BME280;40636;52.424;-1.948;2022-08-19T01:42:49;99518.56;;;17.07;100.00
43364;BME280;40636;52.424;-1.948;2022-08-19T01:45:18;99516.91;;;17.06;100.00
43364;BME280;40636;52.424;-1.948;2022-08-19T01:47:45;99523.50;;;17.10;100.00
43364;BME280;40636;52.424;-1.948;2022-08-19T01:50:29;99530.69;;;17.11;100.00
43364;BME280;40636;52.424;-1.948;2022-08-19T01:52:56;99522.91;;;17.13;100.00
43364;BME280;40636;52.424;-1.948;2022-08-19T01:55:33;99533.09;;;17.17;100.00
43364;BME280;40636;52.424;-1.948;2022-08-19T01:58:11;99535.84;;;17.17;100.00
43364;BME280;40636;52.424;-1.948;2022-08-19T02:00:39;99532.78;;;17.19;100.00
43364;BME280;40636;52.424;-1.948;2022-08-19T02:03:06;99540.88;;;17.15;100.00
43364;BME280;40636;52.424;-1.948;2022-08-19T02:05:36;99538.31;;;17.19;100.00
43364;BME280;40636;52.424;-1.948;2022-08-19T02:08:04;99533.28;;;17.21;100.00
43364;BME280;40636;52.424;-1.948;2022-08-19T02:10:31;99537.72;;;17.22;100.00
43364;BME280;40636;52.424;-1.948;2022-08-19T02:12:58;99531.34;;;17.21;100.00
43364;BME280;40636;52.424;-1.948;2022-08-19T02:15:25;99527.63;;;17.12;100.00
43364;BME280;40636;52.424;-1.948;2022-08-19T02:17:52;99528.84;;;17.06;100.00
43364;BME280;40636;52.424;-1.948;2022-08-19T02:20:19;99526.38;;;17.05;100.00
43364;BME280;40636;52.424;-1.948;2022-08-19T02:22:46;99533.97;;;16.99;100.00
43364;BME280;40636;52.424;-1.948;2022-08-19T02:25:13;99530.25;;;16.90;100.00
43364;BME280;40636;52.424;-1.948;2022-08-19T02:27:41;99539.81;;;16.79;100.00
43364;BME280;40636;52.424;-1.948;2022-08-19T02:30:13;99541.56;;;16.74;100.00
43364;BME280;40636;52.424;-1.948;2022-08-19T02:32:42;99542.72;;;16.68;100.00
43364;BME280;40636;52.424;-1.948;2022-08-19T02:35:11;99549.50;;;16.62;100.00
43364;BME280;40636;52.424;-1.948;2022-08-19T02:37:39;99547.97;;;16.51;100.00
43364;BME280;40636;52.424;-1.948;2022-08-19T02:40:26;99545.28;;;16.46;100.00
43364;BME280;40636;52.424;-1.948;2022-08-19T02:42:53;99545.81;;;16.48;100.00
43364;BME280;40636;52.424;-1.948;2022-08-19T02:45:20;99543.09;;;16.43;100.00
43364;BME280;40636;52.424;-1.948;2022-08-19T02:47:47;99546.19;;;16.41;100.00
43364;BME280;40636;52.424;-1.948;2022-08-19T02:50:14;99550.44;;;16.34;100.00
43364;BME280;40636;52.424;-1.948;2022-08-19T02:52:41;99556.59;;;16.31;100.00
43364;BME280;40636;52.424;-1.948;2022-08-19T02:55:08;99546.09;;;16.28;100.00
43364;BME280;40636;52.424;-1.948;2022-08-19T02:57:35;99543.94;;;16.24;100.00
43364;BME280;40636;52.424;-1.948;2022-08-19T03:00:07;99553.88;;;16.26;100.00
43364;BME280;40636;52.424;-1.948;2022-08-19T03:02:36;99552.00;;;16.21;100.00
43364;BME280;40636;52.424;-1.948;2022-08-19T03:05:05;99561.19;;;16.16;100.00
43364;BME280;40636;52.424;-1.948;2022-08-19T03:07:32;99553.19;;;16.15;100.00
43364;BME280;40636;52.424;-1.948;2022-08-19T03:09:59;99563.44;;;16.14;100.00
43364;BME280;40636;52.424;-1.948;2022-08-19T03:12:26;99560.69;;;16.14;100.00
43364;BME280;40636;52.424;-1.948;2022-08-19T03:14:52;99561.75;;;16.18;100.00
43364;BME280;40636;52.424;-1.948;2022-08-19T03:17:19;99559.78;;;16.19;100.00
43364;BME280;40636;52.424;-1.948;2022-08-19T03:19:46;99568.16;;;16.14;100.00
43364;BME280;40636;52.424;-1.948;2022-08-19T03:22:13;99579.47;;;16.17;100.00
43364;BME280;40636;52.424;-1.948;2022-08-19T03:24:40;99575.03;;;16.16;100.00
43364;BME280;40636;52.424;-1.948;2022-08-19T03:27:07;99571.22;;;16.12;100.00
43364;BME280;40636;52.424;-1.948;2022-08-19T03:29:37;99573.22;;;16.07;100.00
43364;BME280;40636;52.424;-1.948;2022-08-19T03:32:10;99572.41;;;16.06;100.00
43364;BME280;40636;52.424;-1.948;2022-08-19T03:34:57;99575.31;;;15.96;100.00
43364;BME280;40636;52.424;-1.948;2022-08-19T03:37:23;99571.97;;;15.99;100.00
43364;BME280;40636;52.424;-1.948;2022-08-19T03:39:51;99593.63;;;15.92;100.00
43364;BME280;40636;52.424;-1.948;2022-08-19T03:42:18;99581.78;;;15.86;100.00
43364;BME280;40636;52.424;-1.948;2022-08-19T03:44:58;99595.69;;;15.81;100.00
43364;BME280;40636;52.424;-1.948;2022-08-19T03:47:25;99598.78;;;15.75;100.00
43364;BME280;40636;52.424;-1.948;2022-08-19T03:49:52;99603.25;;;15.70;100.00
43364;BME280;40636;52.424;-1.948;2022-08-19T03:52:19;99610.50;;;15.61;100.00
43364;BME280;40636;52.424;-1.948;2022-08-19T03:54:45;99605.03;;;15.56;100.00
43364;BME280;40636;52.424;-1.948;2022-08-19T03:57:12;99611.13;;;15.53;100.00
43364;BME280;40636;52.424;-1.948;2022-08-19T03:59:39;99599.84;;;15.50;100.00
43364;BME280;40636;52.424;-1.948;2022-08-19T04:02:10;99604.59;;;15.44;100.00
43364;BME280;40636;52.424;-1.948;2022-08-19T04:04:39;99602.44;;;15.41;100.00
43364;BME280;40636;52.424;-1.948;2022-08-19T04:07:06;99606.34;;;15.35;100.00
43364;BME280;40636;52.424;-1.948;2022-08-19T04:09:34;99606.94;;;15.32;100.00
43364;BME280;40636;52.424;-1.948;2022-08-19T04:12:03;99611.97;;;15.25;100.00
43364;BME280;40636;52.424;-1.948;2022-08-19T04:14:32;99608.19;;;15.15;100.00
43364;BME280;40636;52.424;-1.948;2022-08-19T04:17:01;99608.78;;;15.07;100.00
43364;BME280;40636;52.424;-1.948;2022-08-19T04:19:33;99614.41;;;14.97;100.00
43364;BME280;40636;52.424;-1.948;2022-08-19T04:22:00;99606.16;;;14.92;100.00
43364;BME280;40636;52.424;-1.948;2022-08-19T04:24:27;99616.94;;;14.88;100.00
43364;BME280;40636;52.424;-1.948;2022-08-19T04:26:54;99626.09;;;14.84;100.00
43364;BME280;40636;52.424;-1.948;2022-08-19T04:29:23;99628.59;;;14.80;100.00
43364;BME280;40636;52.424;-1.948;2022-08-19T04:31:53;99625.88;;;14.75;100.00
43364;BME280;40636;52.424;-1.948;2022-08-19T04:34:21;99630.31;;;14.71;100.00
43364;BME280;40636;52.424;-1.948;2022-08-19T04:36:52;99631.47;;;14.65;100.00
43364;BME280;40636;52.424;-1.948;2022-08-19T04:39:25;99635.63;;;14.62;100.00
43364;BME280;40636;52.424;-1.948;2022-08-19T04:42:11;99638.97;;;14.59;100.00
43364;BME280;40636;52.424;-1.948;2022-08-19T04:44:57;99643.41;;;14.55;100.00
43364;BME280;40636;52.424;-1.948;2022-08-19T04:47:25;99632.34;;;14.55;100.00
43364;BME280;40636;52.424;-1.948;2022-08-19T04:50:13;99647.28;;;14.54;100.00
43364;BME280;40636;52.424;-1.948;2022-08-19T04:52:40;99646.19;;;14.50;100.00
43364;BME280;40636;52.424;-1.948;2022-08-19T04:55:10;99650.91;;;14.50;100.00
43364;BME280;40636;52.424;-1.948;2022-08-19T04:57:37;99659.69;;;14.46;100.00
43364;BME280;40636;52.424;-1.948;2022-08-19T05:00:08;99661.66;;;14.51;100.00
43364;BME280;40636;52.424;-1.948;2022-08-19T05:02:35;99663.25;;;14.57;100.00
43364;BME280;40636;52.424;-1.948;2022-08-19T05:05:02;99666.00;;;14.62;100.00
43364;BME280;40636;52.424;-1.948;2022-08-19T05:07:29;99665.72;;;14.64;100.00
43364;BME280;40636;52.424;-1.948;2022-08-19T05:09:57;99669.31;;;14.64;100.00
43364;BME280;40636;52.424;-1.948;2022-08-19T05:12:25;99679.81;;;14.57;100.00
43364;BME280;40636;52.424;-1.948;2022-08-19T05:14:55;99680.41;;;14.54;100.00
43364;BME280;40636;52.424;-1.948;2022-08-19T05:17:24;99686.50;;;14.51;100.00
43364;BME280;40636;52.424;-1.948;2022-08-19T05:19:55;99685.94;;;14.54;100.00
43364;BME280;40636;52.424;-1.948;2022-08-19T05:22:41;99685.69;;;14.51;100.00
43364;BME280;40636;52.424;-1.948;2022-08-19T05:25:11;99685.38;;;14.47;100.00
43364;BME280;40636;52.424;-1.948;2022-08-19T05:27:40;99690.63;;;14.43;100.00
43364;BME280;40636;52.424;-1.948;2022-08-19T05:30:10;99691.22;;;14.40;100.00
43364;BME280;40636;52.424;-1.948;2022-08-19T05:32:38;99695.34;;;14.38;100.00
43364;BME280;40636;52.424;-1.948;2022-08-19T05:35:06;99695.91;;;14.35;100.00
43364;BME280;40636;52.424;-1.948;2022-08-19T05:37:33;99698.16;;;14.28;100.00
43364;BME280;40636;52.424;-1.948;2022-08-19T05:40:01;99708.09;;;14.24;100.00
43364;BME280;40636;52.424;-1.948;2022-08-19T05:42:28;99706.19;;;14.19;100.00
43364;BME280;40636;52.424;-1.948;2022-08-19T05:44:55;99717.50;;;14.23;100.00
43364;BME280;40636;52.424;-1.948;2022-08-19T05:47:23;99714.44;;;14.24;100.00
43364;BME280;40636;52.424;-1.948;2022-08-19T05:49:50;99714.19;;;14.20;100.00
43364;BME280;40636;52.424;-1.948;2022-08-19T05:52:17;99719.69;;;14.26;100.00
43364;BME280;40636;52.424;-1.948;2022-08-19T05:54:50;99723.50;;;14.35;100.00
43364;BME280;40636;52.424;-1.948;2022-08-19T05:57:18;99727.63;;;14.42;100.00
43364;BME280;40636;52.424;-1.948;2022-08-19T05:59:46;99718.81;;;14.40;100.00
43364;BME280;40636;52.424;-1.948;2022-08-19T06:02:23;99727.38;;;14.39;100.00
43364;BME280;40636;52.424;-1.948;2022-08-19T06:04:51;99729.31;;;14.38;100.00
43364;BME280;40636;52.424;-1.948;2022-08-19T06:07:18;99735.66;;;14.39;100.00
43364;BME280;40636;52.424;-1.948;2022-08-19T06:09:46;99738.41;;;14.39;100.00
43364;BME280;40636;52.424;-1.948;2022-08-19T06:12:30;99744.19;;;14.42;100.00
43364;BME280;40636;52.424;-1.948;2022-08-19T06:15:06;99745.59;;;14.50;99.36
43364;BME280;40636;52.424;-1.948;2022-08-19T06:17:33;99737.03;;;14.52;100.00
43364;BME280;40636;52.424;-1.948;2022-08-19T06:20:07;99735.06;;;14.57;100.00
43364;BME280;40636;52.424;-1.948;2022-08-19T06:22:39;99728.97;;;14.60;98.30
43364;BME280;40636;52.424;-1.948;2022-08-19T06:25:07;99734.47;;;14.65;97.27
43364;BME280;40636;52.424;-1.948;2022-08-19T06:27:36;99742.72;;;14.76;95.98
43364;BME280;40636;52.424;-1.948;2022-08-19T06:30:14;99741.88;;;14.80;96.21
43364;BME280;40636;52.424;-1.948;2022-08-19T06:32:41;99749.03;;;14.86;97.64
43364;BME280;40636;52.424;-1.948;2022-08-19T06:35:08;99745.94;;;14.93;95.50
43364;BME280;40636;52.424;-1.948;2022-08-19T06:37:36;99750.63;;;14.97;94.79
43364;BME280;40636;52.424;-1.948;2022-08-19T06:40:09;99747.59;;;14.99;93.17
43364;BME280;40636;52.424;-1.948;2022-08-19T06:42:37;99750.91;;;14.96;91.44
43364;BME280;40636;52.424;-1.948;2022-08-19T06:45:20;99749.25;;;15.00;92.83
43364;BME280;40636;52.424;-1.948;2022-08-19T06:47:51;99763.81;;;15.11;90.06
43364;BME280;40636;52.424;-1.948;2022-08-19T06:50:23;99759.91;;;15.17;90.16
43364;BME280;40636;52.424;-1.948;2022-08-19T06:52:50;99755.47;;;15.21;89.87
43364;BME280;40636;52.424;-1.948;2022-08-19T06:55:18;99766.22;;;15.28;89.69
43364;BME280;40636;52.424;-1.948;2022-08-19T06:57:45;99772.34;;;15.19;88.74
43364;BME280;40636;52.424;-1.948;2022-08-19T07:00:13;99768.41;;;15.31;87.19
43364;BME280;40636;52.424;-1.948;2022-08-19T07:02:42;99766.69;;;15.35;85.40
43364;BME280;40636;52.424;-1.948;2022-08-19T07:05:21;99769.47;;;15.40;86.14
43364;BME280;40636;52.424;-1.948;2022-08-19T07:07:48;99772.19;;;15.45;85.80
43364;BME280;40636;52.424;-1.948;2022-08-19T07:10:16;99769.38;;;15.50;85.28
43364;BME280;40636;52.424;-1.948;2022-08-19T07:12:43;99767.41;;;15.56;83.79
43364;BME280;40636;52.424;-1.948;2022-08-19T07:15:11;99781.19;;;15.66;83.75
43364;BME280;40636;52.424;-1.948;2022-08-19T07:17:38;99773.13;;;15.69;85.17
43364;BME280;40636;52.424;-1.948;2022-08-19T07:20:08;99777.50;;;15.76;83.71
43364;BME280;40636;52.424;-1.948;2022-08-19T07:22:38;99782.72;;;15.82;84.69
43364;BME280;40636;52.424;-1.948;2022-08-19T07:25:07;99798.34;;;15.97;83.57
43364;BME280;40636;52.424;-1.948;2022-08-19T07:27:35;99791.78;;;15.88;80.87
43364;BME280;40636;52.424;-1.948;2022-08-19T07:30:02;99791.69;;;15.98;81.54
43364;BME280;40636;52.424;-1.948;2022-08-19T07:32:29;99798.91;;;15.99;81.45
43364;BME280;40636;52.424;-1.948;2022-08-19T07:34:58;99788.41;;;15.96;78.28
43364;BME280;40636;52.424;-1.948;2022-08-19T07:37:27;99794.47;;;15.98;79.57
43364;BME280;40636;52.424;-1.948;2022-08-19T07:39:59;99790.31;;;16.01;79.43
43364;BME280;40636;52.424;-1.948;2022-08-19T07:42:27;99794.09;;;16.10;77.85
43364;BME280;40636;52.424;-1.948;2022-08-19T07:44:56;99803.44;;;16.19;79.35
43364;BME280;40636;52.424;-1.948;2022-08-19T07:47:24;99805.28;;;16.29;79.39
43364;BME280;40636;52.424;-1.948;2022-08-19T07:50:11;99810.19;;;16.37;78.39
43364;BME280;40636;52.424;-1.948;2022-08-19T07:52:38;99807.34;;;16.42;77.41
43364;BME280;40636;52.424;-1.948;2022-08-19T07:55:09;99806.22;;;16.43;74.40
43364;BME280;40636;52.424;-1.948;2022-08-19T07:57:57;99813.47;;;16.39;76.01
43364;BME280;40636;52.424;-1.948;2022-08-19T08:00:24;99813.97;;;16.46;76.02
43364;BME280;40636;52.424;-1.948;2022-08-19T08:02:52;99805.59;;;16.51;75.22
43364;BME280;40636;52.424;-1.948;2022-08-19T08:05:22;99810.06;;;16.47;74.21
43364;BME280;40636;52.424;-1.948;2022-08-19T08:08:10;99811.00;;;16.61;72.83
43364;BME280;40636;52.424;-1.948;2022-08-19T08:10:56;99806.91;;;16.59;71.07
43364;BME280;40636;52.424;-1.948;2022-08-19T08:13:24;99808.31;;;16.56;69.63
43364;BME280;40636;52.424;-1.948;2022-08-19T08:15:55;99802.19;;;16.59;70.09
43364;BME280;40636;52.424;-1.948;2022-08-19T08:18:23;99801.56;;;16.67;68.74
43364;BME280;40636;52.424;-1.948;2022-08-19T08:20:55;99812.00;;;16.76;67.69
43364;BME280;40636;52.424;-1.948;2022-08-19T08:23:23;99815.00;;;16.79;66.14
43364;BME280;40636;52.424;-1.948;2022-08-19T08:25:55;99823.88;;;16.81;65.90
43364;BME280;40636;52.424;-1.948;2022-08-19T08:28:23;99821.59;;;16.83;66.97
43364;BME280;40636;52.424;-1.948;2022-08-19T08:30:51;99832.28;;;16.95;65.84
43364;BME280;40636;52.424;-1.948;2022-08-19T08:33:21;99823.44;;;16.93;65.96
43364;BME280;40636;52.424;-1.948;2022-08-19T08:36:07;99819.63;;;17.08;68.60
43364;BME280;40636;52.424;-1.948;2022-08-19T08:38:35;99825.31;;;17.21;67.62
43364;BME280;40636;52.424;-1.948;2022-08-19T08:41:38;99824.09;;;17.09;64.80
43364;BME280;40636;52.424;-1.948;2022-08-19T08:44:13;99810.06;;;17.19;65.17
43364;BME280;40636;52.424;-1.948;2022-08-19T08:46:58;99817.97;;;17.31;65.09
43364;BME280;40636;52.424;-1.948;2022-08-19T08:49:33;99811.97;;;17.23;65.71
43364;BME280;40636;52.424;-1.948;2022-08-19T08:52:36;99811.97;;;17.42;64.08
43364;BME280;40636;52.424;-1.948;2022-08-19T08:55:10;99800.28;;;17.45;63.18
43364;BME280;40636;52.424;-1.948;2022-08-19T09:00:21;99826.22;;;17.55;63.01
43364;BME280;40636;52.424;-1.948;2022-08-19T09:02:49;99826.88;;;17.65;62.61
43364;BME280;40636;52.424;-1.948;2022-08-19T09:05:18;99822.06;;;17.76;61.23
43364;BME280;40636;52.424;-1.948;2022-08-19T09:08:08;99816.34;;;17.86;62.87
43364;BME280;40636;52.424;-1.948;2022-08-19T09:10:49;99820.03;;;17.82;62.72
43364;BME280;40636;52.424;-1.948;2022-08-19T09:16:16;99827.06;;;17.74;63.20
43364;BME280;40636;52.424;-1.948;2022-08-19T09:18:52;99823.06;;;17.61;61.76
43364;BME280;40636;52.424;-1.948;2022-08-19T09:21:23;99823.69;;;17.58;63.97
43364;BME280;40636;52.424;-1.948;2022-08-19T09:23:56;99830.94;;;17.54;64.10
43364;BME280;40636;52.424;-1.948;2022-08-19T09:26:26;99832.06;;;17.53;63.24
43364;BME280;40636;52.424;-1.948;2022-08-19T09:29:13;99835.94;;;17.33;64.18
43364;BME280;40636;52.424;-1.948;2022-08-19T09:31:40;99829.59;;;17.52;63.22
43364;BME280;40636;52.424;-1.948;2022-08-19T09:34:07;99831.03;;;17.49;62.99
43364;BME280;40636;52.424;-1.948;2022-08-19T09:36:48;99832.06;;;17.53;65.24
43364;BME280;40636;52.424;-1.948;2022-08-19T09:39:22;99836.25;;;17.32;66.25
43364;BME280;40636;52.424;-1.948;2022-08-19T09:41:49;99833.34;;;17.42;65.51
43364;BME280;40636;52.424;-1.948;2022-08-19T09:44:19;99840.25;;;17.44;62.26
43364;BME280;40636;52.424;-1.948;2022-08-19T09:46:52;99835.38;;;17.55;61.36
43364;BME280;40636;52.424;-1.948;2022-08-19T09:49:19;99830.00;;;17.83;61.14
43364;BME280;40636;52.424;-1.948;2022-08-19T09:51:51;99832.41;;;18.03;61.02
43364;BME280;40636;52.424;-1.948;2022-08-19T09:54:19;99835.38;;;18.25;60.97
43364;BME280;40636;52.424;-1.948;2022-08-19T09:56:50;99845.03;;;18.14;58.30
43364;BME280;40636;52.424;-1.948;2022-08-19T09:59:17;99846.94;;;18.00;56.79
43364;BME280;40636;52.424;-1.948;2022-08-19T10:01:44;99847.28;;;18.12;57.32
43364;BME280;40636;52.424;-1.948;2022-08-19T10:04:12;99842.19;;;18.33;56.55
43364;BME280;40636;52.424;-1.948;2022-08-19T10:06:49;99843.47;;;18.41;57.63
43364;BME280;40636;52.424;-1.948;2022-08-19T10:09:21;99845.72;;;18.52;57.20
43364;BME280;40636;52.424;-1.948;2022-08-19T10:12:00;99853.66;;;18.45;57.12
43364;BME280;40636;52.424;-1.948;2022-08-19T10:14:29;99841.69;;;18.31;57.60
43364;BME280;40636;52.424;-1.948;2022-08-19T10:16:56;99832.88;;;18.10;57.77
43364;BME280;40636;52.424;-1.948;2022-08-19T10:19:26;99840.25;;;18.01;57.83
43364;BME280;40636;52.424;-1.948;2022-08-19T10:21:56;99842.84;;;18.11;58.11
43364;BME280;40636;52.424;-1.948;2022-08-19T10:24:26;99842.84;;;18.11;54.24
43364;BME280;40636;52.424;-1.948;2022-08-19T10:26:55;99844.75;;;17.97;54.57
43364;BME280;40636;52.424;-1.948;2022-08-19T10:29:28;99841.69;;;17.80;55.88
43364;BME280;40636;52.424;-1.948;2022-08-19T10:32:03;99836.25;;;17.69;56.72
43364;BME280;40636;52.424;-1.948;2022-08-19T10:34:38;99845.94;;;17.72;57.07
43364;BME280;40636;52.424;-1.948;2022-08-19T10:37:17;99838.81;;;17.85;57.50
43364;BME280;40636;52.424;-1.948;2022-08-19T10:39:54;99832.00;;;17.96;54.70
43364;BME280;40636;52.424;-1.948;2022-08-19T10:42:21;99826.41;;;18.15;54.17
43364;BME280;40636;52.424;-1.948;2022-08-19T10:44:48;99831.13;;;18.47;55.67
43364;BME280;40636;52.424;-1.948;2022-08-19T10:47:17;99826.28;;;18.66;56.10
43364;BME280;40636;52.424;-1.948;2022-08-19T10:49:57;99825.13;;;19.00;55.37
43364;BME280;40636;52.424;-1.948;2022-08-19T10:52:44;99825.91;;;19.28;54.74
43364;BME280;40636;52.424;-1.948;2022-08-19T10:55:20;99832.53;;;19.18;53.96
43364;BME280;40636;52.424;-1.948;2022-08-19T10:58:17;99834.78;;;19.16;52.49
43364;BME280;40636;52.424;-1.948;2022-08-19T11:00:57;99834.28;;;19.14;53.03
43364;BME280;40636;52.424;-1.948;2022-08-19T11:03:25;99837.78;;;19.06;52.18
43364;BME280;40636;52.424;-1.948;2022-08-19T11:06:05;99838.69;;;19.15;53.94
43364;BME280;40636;52.424;-1.948;2022-08-19T11:08:33;99836.25;;;19.00;52.92
43364;BME280;40636;52.424;-1.948;2022-08-19T11:11:01;99835.41;;;18.99;57.06
43364;BME280;40636;52.424;-1.948;2022-08-19T11:13:31;99840.34;;;18.89;55.27
43364;BME280;40636;52.424;-1.948;2022-08-19T11:16:02;99840.88;;;19.05;54.50
43364;BME280;40636;52.424;-1.948;2022-08-19T11:18:37;99839.72;;;19.19;55.88
43364;BME280;40636;52.424;-1.948;2022-08-19T11:23:47;99841.38;;;19.20;54.41
43364;BME280;40636;52.424;-1.948;2022-08-19T11:26:16;99841.91;;;19.22;55.52
43364;BME280;40636;52.424;-1.948;2022-08-19T11:28:44;99829.16;;;19.44;54.79
43364;BME280;40636;52.424;-1.948;2022-08-19T11:31:16;99829.56;;;19.51;56.17
43364;BME280;40636;52.424;-1.948;2022-08-19T11:33:43;99828.16;;;19.40;52.71
43364;BME280;40636;52.424;-1.948;2022-08-19T11:36:13;99827.22;;;19.44;53.67
43364;BME280;40636;52.424;-1.948;2022-08-19T11:38:41;99820.13;;;19.38;51.59
43364;BME280;40636;52.424;-1.948;2022-08-19T11:41:08;99824.47;;;19.31;51.46
43364;BME280;40636;52.424;-1.948;2022-08-19T11:43:36;99822.41;;;19.22;52.18
43364;BME280;40636;52.424;-1.948;2022-08-19T11:46:08;99819.13;;;19.20;52.88
43364;BME280;40636;52.424;-1.948;2022-08-19T11:48:36;99826.25;;;18.99;54.93
43364;BME280;40636;52.424;-1.948;2022-08-19T11:51:08;99828.19;;;18.98;54.19
43364;BME280;40636;52.424;-1.948;2022-08-19T11:53:36;99830.06;;;19.03;55.70
43364;BME280;40636;52.424;-1.948;2022-08-19T11:56:05;99834.78;;;19.02;53.98
43364;BME280;40636;52.424;-1.948;2022-08-19T11:58:32;99837.38;;;18.99;55.80
43364;BME280;40636;52.424;-1.948;2022-08-19T12:01:01;99831.28;;;18.83;56.08
43364;BME280;40636;52.424;-1.948;2022-08-19T12:03:31;99836.84;;;18.97;55.37
43364;BME280;40636;52.424;-1.948;2022-08-19T12:05:58;99835.41;;;18.99;54.98
43364;BME280;40636;52.424;-1.948;2022-08-19T12:08:24;99829.66;;;18.96;55.07
43364;BME280;40636;52.424;-1.948;2022-08-19T12:10:51;99836.13;;;19.05;55.10
43364;BME280;40636;52.424;-1.948;2022-08-19T12:13:18;99838.69;;;19.01;53.25
43364;BME280;40636;52.424;-1.948;2022-08-19T12:15:46;99851.28;;;19.13;53.36
43364;BME280;40636;52.424;-1.948;2022-08-19T12:18:14;99851.38;;;19.21;55.68
43364;BME280;40636;52.424;-1.948;2022-08-19T12:20:42;99839.63;;;19.24;55.04
43364;BME280;40636;52.424;-1.948;2022-08-19T12:23:10;99845.88;;;19.30;53.51
43364;BME280;40636;52.424;-1.948;2022-08-19T12:25:44;99841.72;;;19.55;55.09
43364;BME280;40636;52.424;-1.948;2022-08-19T12:28:18;99841.28;;;19.75;53.39
43364;BME280;40636;52.424;-1.948;2022-08-19T12:30:47;99849.53;;;19.81;53.58
43364;BME280;40636;52.424;-1.948;2022-08-19T12:33:14;99844.13;;;19.84;54.42
43364;BME280;40636;52.424;-1.948;2022-08-19T12:35:42;99837.75;;;19.84;52.77
43364;BME280;40636;52.424;-1.948;2022-08-19T12:38:13;99840.94;;;19.91;51.92
43364;BME280;40636;52.424;-1.948;2022-08-19T12:40:41;99838.97;;;19.91;52.94
43364;BME280;40636;52.424;-1.948;2022-08-19T12:43:08;99845.34;;;19.92;50.63
43364;BME280;40636;52.424;-1.948;2022-08-19T12:45:35;99831.69;;;19.82;50.36
43364;BME280;40636;52.424;-1.948;2022-08-19T12:48:03;99841.06;;;19.86;47.96
43364;BME280;40636;52.424;-1.948;2022-08-19T12:50:51;99841.94;;;19.72;49.02
43364;BME280;40636;52.424;-1.948;2022-08-19T12:53:19;99842.94;;;19.76;49.92
43364;BME280;40636;52.424;-1.948;2022-08-19T12:55:45;99837.09;;;19.64;49.96
43364;BME280;40636;52.424;-1.948;2022-08-19T12:58:12;99843.06;;;19.71;50.73
43364;BME280;40636;52.424;-1.948;2022-08-19T13:00:40;99843.50;;;19.65;50.08
43364;BME280;40636;52.424;-1.948;2022-08-19T13:03:07;99841.28;;;19.75;51.41
43364;BME280;40636;52.424;-1.948;2022-08-19T13:05:36;99844.09;;;19.98;52.79
43364;BME280;40636;52.424;-1.948;2022-08-19T13:08:03;99844.59;;;20.00;51.72
43364;BME280;40636;52.424;-1.948;2022-08-19T13:10:33;99857.03;;;19.80;48.67
43364;BME280;40636;52.424;-1.948;2022-08-19T13:13:07;99857.94;;;19.67;49.61